sensor_id;sensor_type;location;lat;lon;timestamp;pressure;altitude;pressure_sealevel;temperature;humidity
68758;BME280;55747;51.998;4.466;2022-11-15T00:00:49;56632.91;;;-144.48;100.00
68758;BME280;55747;51.998;4.466;2022-11-15T00:03:16;56624.63;;;-144.48;100.00
68758;BME280;55747;51.998;4.466;2022-11-15T00:05:42;56676.31;;;-144.48;100.00
68758;BME280;55747;51.998;4.466;2022-11-15T00:08:07;56614.31;;;-144.48;100.00
68758;BME280;55747;51.998;4.466;2022-11-15T00:10:33;56637.03;;;-144.48;100.00
68758;BME280;55747;51.998;4.466;2022-11-15T00:12:58;56649.44;;;-144.48;100.00
68758;BME280;55747;51.998;4.466;2022-11-15T00:15:23;56670.13;;;-144.48;100.00
68758;BME280;55747;51.998;4.466;2022-11-15T00:17:49;56688.72;;;-144.48;100.00
68758;BME280;55747;51.998;4.466;2022-11-15T00:20:14;56614.31;;;-144.48;100.00
68758;BME280;55747;51.998;4.466;2022-11-15T00:22:40;56595.69;;;-144.48;100.00
68758;BME280;55747;51.998;4.466;2022-11-15T00:25:05;56616.38;;;-144.48;100.00
68758;BME280;55747;51.998;4.466;2022-11-15T00:27:30;56634.97;;;-144.48;100.00
68758;BME280;55747;51.998;4.466;2022-11-15T00:29:56;56606.03;;;-144.48;100.00
68758;BME280;55747;51.998;4.466;2022-11-15T00:32:21;56603.97;;;-144.48;100.00
68758;BME280;55747;51.998;4.466;2022-11-15T00:34:46;56659.78;;;-144.48;100.00
68758;BME280;55747;51.998;4.466;2022-11-15T00:37:12;56634.97;;;-144.48;100.00
68758;BME280;55747;51.998;4.466;2022-11-15T00:39:37;56622.56;;;-144.48;100.00
68758;BME280;55747;51.998;4.466;2022-11-15T00:42:02;56639.13;;;-144.48;100.00
68758;BME280;55747;51.998;4.466;2022-11-15T00:44:28;56620.50;;;-144.48;100.00
68758;BME280;55747;51.998;4.466;2022-11-15T00:46:53;56624.63;;;-144.48;100.00
68758;BME280;55747;51.998;4.466;2022-11-15T00:49:18;56630.84;;;-144.48;100.00
68758;BME280;55747;51.998;4.466;2022-11-15T00:51:44;56612.22;;;-144.48;100.00
68758;BME280;55747;51.998;4.466;2022-11-15T00:54:09;56606.03;;;-144.48;100.00
68758;BME280;55747;51.998;4.466;2022-11-15T00:56:34;56634.97;;;-144.48;100.00
68758;BME280;55747;51.998;4.466;2022-11-15T00:59:00;56599.81;;;-144.48;100.00
68758;BME280;55747;51.998;4.466;2022-11-15T01:01:25;56612.22;;;-144.48;100.00
68758;BME280;55747;51.998;4.466;2022-11-15T01:03:50;56680.47;;;-144.48;100.00
68758;BME280;55747;51.998;4.466;2022-11-15T01:06:16;56630.84;;;-144.48;100.00
68758;BME280;55747;51.998;4.466;2022-11-15T01:08:41;56610.16;;;-144.48;100.00
68758;BME280;55747;51.998;4.466;2022-11-15T01:11:10;56626.72;;;-144.48;100.00
68758;BME280;55747;51.998;4.466;2022-11-15T01:13:37;56630.84;;;-144.48;100.00
68758;BME280;55747;51.998;4.466;2022-11-15T01:16:14;56639.13;;;-144.48;100.00
68758;BME280;55747;51.998;4.466;2022-11-15T01:18:40;56651.50;;;-144.48;100.00
68758;BME280;55747;51.998;4.466;2022-11-15T01:21:15;56612.22;;;-144.48;100.00
68758;BME280;55747;51.998;4.466;2022-11-15T01:23:41;56655.66;;;-144.48;100.00
68758;BME280;55747;51.998;4.466;2022-11-15T01:26:09;56620.50;;;-144.48;100.00
68758;BME280;55747;51.998;4.466;2022-11-15T01:28:37;56637.03;;;-144.48;100.00
68758;BME280;55747;51.998;4.466;2022-11-15T01:31:05;56610.16;;;-144.48;100.00
68758;BME280;55747;51.998;4.466;2022-11-15T01:33:34;56620.50;;;-144.48;100.00
68758;BME280;55747;51.998;4.466;2022-11-15T01:36:03;56637.03;;;-144.48;100.00
68758;BME280;55747;51.998;4.466;2022-11-15T01:38:29;56653.59;;;-144.48;100.00
68758;BME280;55747;51.998;4.466;2022-11-15T01:40:54;56618.44;;;-144.48;100.00
68758;BME280;55747;51.998;4.466;2022-11-15T01:43:23;56620.50;;;-144.48;100.00
68758;BME280;55747;51.998;4.466;2022-11-15T01:45:52;56618.44;;;-144.48;100.00
68758;BME280;55747;51.998;4.466;2022-11-15T01:48:22;56678.41;;;-144.48;100.00
68758;BME280;55747;51.998;4.466;2022-11-15T01:50:50;56614.31;;;-144.48;100.00
68758;BME280;55747;51.998;4.466;2022-11-15T01:53:17;56634.97;;;-144.48;100.00
68758;BME280;55747;51.998;4.466;2022-11-15T01:55:43;56630.84;;;-144.48;100.00
68758;BME280;55747;51.998;4.466;2022-11-15T01:58:09;56628.78;;;-144.48;100.00
68758;BME280;55747;51.998;4.466;2022-11-15T02:00:34;56647.38;;;-144.48;100.00
68758;BME280;55747;51.998;4.466;2022-11-15T02:03:01;56630.84;;;-144.48;100.00
68758;BME280;55747;51.998;4.466;2022-11-15T02:05:26;56608.09;;;-144.48;100.00
68758;BME280;55747;51.998;4.466;2022-11-15T02:07:52;56626.72;;;-144.48;100.00
68758;BME280;55747;51.998;4.466;2022-11-15T02:10:21;56624.63;;;-144.48;100.00
68758;BME280;55747;51.998;4.466;2022-11-15T02:12:47;56643.25;;;-144.48;100.00
68758;BME280;55747;51.998;4.466;2022-11-15T02:15:13;56637.03;;;-144.48;100.00
68758;BME280;55747;51.998;4.466;2022-11-15T02:23:28;56624.63;;;-144.48;100.00
68758;BME280;55747;51.998;4.466;2022-11-15T02:26:25;56634.97;;;-144.48;100.00
68758;BME280;55747;51.998;4.466;2022-11-15T02:29:05;56651.50;;;-144.48;100.00
68758;BME280;55747;51.998;4.466;2022-11-15T02:31:41;56639.13;;;-144.48;100.00
68758;BME280;55747;51.998;4.466;2022-11-15T02:34:39;56649.44;;;-144.48;100.00
68758;BME280;55747;51.998;4.466;2022-11-15T02:37:22;56626.72;;;-144.48;100.00
68758;BME280;55747;51.998;4.466;2022-11-15T02:40:00;56620.50;;;-144.48;100.00
68758;BME280;55747;51.998;4.466;2022-11-15T02:42:33;56626.72;;;-144.48;100.00
68758;BME280;55747;51.998;4.466;2022-11-15T02:45:24;56620.50;;;-144.48;100.00
68758;BME280;55747;51.998;4.466;2022-11-15T02:47:54;56659.78;;;-144.48;100.00
68758;BME280;55747;51.998;4.466;2022-11-15T02:50:25;56616.38;;;-144.48;100.00
68758;BME280;55747;51.998;4.466;2022-11-15T02:52:52;56618.44;;;-144.48;100.00
68758;BME280;55747;51.998;4.466;2022-11-15T02:55:39;56651.50;;;-144.48;100.00
68758;BME280;55747;51.998;4.466;2022-11-15T02:58:27;56624.63;;;-144.48;100.00
68758;BME280;55747;51.998;4.466;2022-11-15T03:01:28;56639.13;;;-144.48;100.00
68758;BME280;55747;51.998;4.466;2022-11-15T03:04:23;56655.66;;;-144.48;100.00
68758;BME280;55747;51.998;4.466;2022-11-15T03:07:07;56628.78;;;-144.48;100.00
68758;BME280;55747;51.998;4.466;2022-11-15T03:10:08;56620.50;;;-144.48;100.00
68758;BME280;55747;51.998;4.466;2022-11-15T03:12:43;56626.72;;;-144.48;100.00
68758;BME280;55747;51.998;4.466;2022-11-15T03:15:18;56653.59;;;-144.48;100.00
68758;BME280;55747;51.998;4.466;2022-11-15T03:17:55;56634.97;;;-144.48;100.00
68758;BME280;55747;51.998;4.466;2022-11-15T03:20:24;56668.06;;;-144.48;100.00
68758;BME280;55747;51.998;4.466;2022-11-15T03:22:53;56630.84;;;-144.48;100.00
68758;BME280;55747;51.998;4.466;2022-11-15T03:25:23;56659.78;;;-144.48;100.00
68758;BME280;55747;51.998;4.466;2022-11-15T03:27:52;56632.91;;;-144.48;100.00
68758;BME280;55747;51.998;4.466;2022-11-15T03:30:18;56641.19;;;-144.48;100.00
68758;BME280;55747;51.998;4.466;2022-11-15T03:32:49;56651.50;;;-144.48;100.00
68758;BME280;55747;51.998;4.466;2022-11-15T03:35:20;56632.91;;;-144.48;100.00
68758;BME280;55747;51.998;4.466;2022-11-15T03:37:54;56620.50;;;-144.48;100.00
68758;BME280;55747;51.998;4.466;2022-11-15T03:40:41;56649.44;;;-144.48;100.00
68758;BME280;55747;51.998;4.466;2022-11-15T03:43:15;56661.84;;;-144.48;100.00
68758;BME280;55747;51.998;4.466;2022-11-15T03:45:50;56645.31;;;-144.48;100.00
68758;BME280;55747;51.998;4.466;2022-11-15T03:48:22;56643.25;;;-144.48;100.00
68758;BME280;55747;51.998;4.466;2022-11-15T03:50:49;56637.03;;;-144.48;100.00
68758;BME280;55747;51.998;4.466;2022-11-15T03:53:15;56634.97;;;-144.48;100.00
68758;BME280;55747;51.998;4.466;2022-11-15T03:55:40;56624.63;;;-144.48;100.00
68758;BME280;55747;51.998;4.466;2022-11-15T03:58:06;56670.13;;;-144.48;100.00
68758;BME280;55747;51.998;4.466;2022-11-15T04:00:32;56616.38;;;-144.48;100.00
68758;BME280;55747;51.998;4.466;2022-11-15T04:02:57;56678.41;;;-144.48;100.00
68758;BME280;55747;51.998;4.466;2022-11-15T04:05:22;56639.13;;;-144.48;100.00
68758;BME280;55747;51.998;4.466;2022-11-15T04:07:48;56626.72;;;-144.48;100.00
68758;BME280;55747;51.998;4.466;2022-11-15T04:10:13;56649.44;;;-144.48;100.00
68758;BME280;55747;51.998;4.466;2022-11-15T04:12:42;56645.31;;;-144.48;100.00
68758;BME280;55747;51.998;4.466;2022-11-15T04:17:39;56647.38;;;-144.48;100.00
68758;BME280;55747;51.998;4.466;2022-11-15T04:20:08;56645.31;;;-144.48;100.00
68758;BME280;55747;51.998;4.466;2022-11-15T04:22:54;56632.91;;;-144.48;100.00
68758;BME280;55747;51.998;4.466;2022-11-15T04:25:38;56651.50;;;-144.48;100.00
68758;BME280;55747;51.998;4.466;2022-11-15T04:28:04;56637.03;;;-144.48;100.00
68758;BME280;55747;51.998;4.466;2022-11-15T04:30:29;56641.19;;;-144.48;100.00
68758;BME280;55747;51.998;4.466;2022-11-15T04:32:54;56628.78;;;-144.48;100.00
68758;BME280;55747;51.998;4.466;2022-11-15T04:35:20;56630.84;;;-144.48;100.00
68758;BME280;55747;51.998;4.466;2022-11-15T04:37:45;56632.91;;;-144.48;100.00
68758;BME280;55747;51.998;4.466;2022-11-15T04:40:10;56655.66;;;-144.48;100.00
68758;BME280;55747;51.998;4.466;2022-11-15T04:42:36;56655.66;;;-144.48;100.00
68758;BME280;55747;51.998;4.466;2022-11-15T04:45:01;56641.19;;;-144.48;100.00
68758;BME280;55747;51.998;4.466;2022-11-15T04:47:26;56649.44;;;-144.48;100.00
68758;BME280;55747;51.998;4.466;2022-11-15T04:49:53;56653.59;;;-144.48;100.00
68758;BME280;55747;51.998;4.466;2022-11-15T04:52:18;56676.31;;;-144.48;100.00
68758;BME280;55747;51.998;4.466;2022-11-15T04:54:43;56608.09;;;-144.48;100.00
68758;BME280;55747;51.998;4.466;2022-11-15T04:57:09;56657.72;;;-144.48;100.00
68758;BME280;55747;51.998;4.466;2022-11-15T04:59:35;56610.16;;;-144.48;100.00
68758;BME280;55747;51.998;4.466;2022-11-15T05:02:00;56655.66;;;-144.48;100.00
68758;BME280;55747;51.998;4.466;2022-11-15T05:04:26;56639.13;;;-144.48;100.00
68758;BME280;55747;51.998;4.466;2022-11-15T05:06:51;56641.19;;;-144.48;100.00
68758;BME280;55747;51.998;4.466;2022-11-15T05:09:18;56622.56;;;-144.48;100.00
68758;BME280;55747;51.998;4.466;2022-11-15T05:11:44;56659.78;;;-144.48;100.00
68758;BME280;55747;51.998;4.466;2022-11-15T05:14:09;56651.50;;;-144.48;100.00
68758;BME280;55747;51.998;4.466;2022-11-15T05:16:35;56655.66;;;-144.48;100.00
68758;BME280;55747;51.998;4.466;2022-11-15T05:19:00;56624.63;;;-144.48;100.00
68758;BME280;55747;51.998;4.466;2022-11-15T05:21:26;56661.84;;;-144.48;100.00
68758;BME280;55747;51.998;4.466;2022-11-15T05:23:51;56637.03;;;-144.48;100.00
68758;BME280;55747;51.998;4.466;2022-11-15T05:26:17;56651.50;;;-144.48;99.89
68758;BME280;55747;51.998;4.466;2022-11-15T05:28:43;56634.97;;;-144.48;99.40
68758;BME280;55747;51.998;4.466;2022-11-15T05:31:18;56645.31;;;-144.48;98.95
68758;BME280;55747;51.998;4.466;2022-11-15T05:33:48;56657.72;;;-144.48;98.69
68758;BME280;55747;51.998;4.466;2022-11-15T05:36:41;56628.78;;;-144.48;98.58
68758;BME280;55747;51.998;4.466;2022-11-15T05:39:07;56649.44;;;-144.48;98.59
68758;BME280;55747;51.998;4.466;2022-11-15T05:41:44;56686.66;;;-144.48;98.61
68758;BME280;55747;51.998;4.466;2022-11-15T05:44:15;56632.91;;;-144.48;98.60
68758;BME280;55747;51.998;4.466;2022-11-15T05:46:48;56645.31;;;-144.48;98.53
68758;BME280;55747;51.998;4.466;2022-11-15T05:49:17;56632.91;;;-144.48;98.27
68758;BME280;55747;51.998;4.466;2022-11-15T05:51:48;56616.38;;;-144.48;98.31
68758;BME280;55747;51.998;4.466;2022-11-15T05:54:17;56645.31;;;-144.48;98.19
68758;BME280;55747;51.998;4.466;2022-11-15T05:56:53;56668.06;;;-144.48;97.99
68758;BME280;55747;51.998;4.466;2022-11-15T05:59:20;56666.00;;;-144.48;98.02
68758;BME280;55747;51.998;4.466;2022-11-15T06:01:46;56666.00;;;-144.48;97.73
68758;BME280;55747;51.998;4.466;2022-11-15T06:04:11;56668.06;;;-144.48;97.64
68758;BME280;55747;51.998;4.466;2022-11-15T06:06:37;56661.84;;;-144.48;97.55
68758;BME280;55747;51.998;4.466;2022-11-15T06:09:02;56659.78;;;-144.48;97.54
68758;BME280;55747;51.998;4.466;2022-11-15T06:11:31;56668.06;;;-144.48;97.54
68758;BME280;55747;51.998;4.466;2022-11-15T06:13:56;56647.38;;;-144.48;97.36
68758;BME280;55747;51.998;4.466;2022-11-15T06:16:43;56647.38;;;-144.48;97.47
68758;BME280;55747;51.998;4.466;2022-11-15T06:19:08;56641.19;;;-144.48;97.36
68758;BME280;55747;51.998;4.466;2022-11-15T06:21:33;56628.78;;;-144.48;97.38
68758;BME280;55747;51.998;4.466;2022-11-15T06:24:11;56643.25;;;-144.48;97.38
68758;BME280;55747;51.998;4.466;2022-11-15T06:26:57;56641.19;;;-144.48;97.23
68758;BME280;55747;51.998;4.466;2022-11-15T06:29:28;56639.13;;;-144.48;97.09
68758;BME280;55747;51.998;4.466;2022-11-15T06:31:59;56666.00;;;-144.48;97.25
68758;BME280;55747;51.998;4.466;2022-11-15T06:38:12;56645.31;;;-144.48;97.16
68758;BME280;55747;51.998;4.466;2022-11-15T06:40:48;56655.66;;;-144.48;97.27
68758;BME280;55747;51.998;4.466;2022-11-15T06:43:37;56659.78;;;-144.48;97.15
68758;BME280;55747;51.998;4.466;2022-11-15T06:46:20;56649.44;;;-144.48;96.97
68758;BME280;55747;51.998;4.466;2022-11-15T06:48:47;56641.19;;;-144.48;96.98
68758;BME280;55747;51.998;4.466;2022-11-15T06:51:14;56649.44;;;-144.48;96.90
68758;BME280;55747;51.998;4.466;2022-11-15T06:56:57;56639.13;;;-144.48;96.92
68758;BME280;55747;51.998;4.466;2022-11-15T07:03:03;56655.66;;;-144.48;96.82
68758;BME280;55747;51.998;4.466;2022-11-15T07:05:40;56643.25;;;-144.48;96.58
68758;BME280;55747;51.998;4.466;2022-11-15T07:08:13;56643.25;;;-144.48;96.47
68758;BME280;55747;51.998;4.466;2022-11-15T07:11:09;56686.66;;;-144.48;96.61
68758;BME280;55747;51.998;4.466;2022-11-15T07:14:01;56643.25;;;-144.48;96.47
68758;BME280;55747;51.998;4.466;2022-11-15T07:29:32;56624.63;;;-144.48;94.89
68758;BME280;55747;51.998;4.466;2022-11-15T07:32:14;56626.72;;;-144.48;94.11
68758;BME280;55747;51.998;4.466;2022-11-15T07:35:14;56659.78;;;-144.48;93.27
68758;BME280;55747;51.998;4.466;2022-11-15T07:41:05;56628.78;;;-144.48;92.76
68758;BME280;55747;51.998;4.466;2022-11-15T07:43:52;56647.38;;;-144.48;92.58
68758;BME280;55747;51.998;4.466;2022-11-15T07:46:53;56626.72;;;-144.48;92.28
68758;BME280;55747;51.998;4.466;2022-11-15T07:49:45;56682.53;;;-144.48;92.09
68758;BME280;55747;51.998;4.466;2022-11-15T07:56:26;56655.66;;;-144.48;92.04
68758;BME280;55747;51.998;4.466;2022-11-15T07:59:06;56618.44;;;-144.48;92.06
68758;BME280;55747;51.998;4.466;2022-11-15T08:02:14;56666.00;;;-144.48;92.09
68758;BME280;55747;51.998;4.466;2022-11-15T08:05:14;56668.06;;;-144.48;92.04
68758;BME280;55747;51.998;4.466;2022-11-15T08:07:51;56645.31;;;-144.48;91.71
68758;BME280;55747;51.998;4.466;2022-11-15T08:14:42;56628.78;;;-144.48;90.77
68758;BME280;55747;51.998;4.466;2022-11-15T08:17:46;56649.44;;;-144.48;90.07
68758;BME280;55747;51.998;4.466;2022-11-15T08:20:27;56649.44;;;-144.48;89.73
68758;BME280;55747;51.998;4.466;2022-11-15T08:26:19;56682.53;;;-144.48;89.09
68758;BME280;55747;51.998;4.466;2022-11-15T08:32:18;56651.50;;;-144.48;88.94
68758;BME280;55747;51.998;4.466;2022-11-15T08:34:56;56663.91;;;-144.48;88.79
68758;BME280;55747;51.998;4.466;2022-11-15T08:37:24;56653.59;;;-144.48;88.42
68758;BME280;55747;51.998;4.466;2022-11-15T08:39:56;56651.50;;;-144.48;88.38
68758;BME280;55747;51.998;4.466;2022-11-15T08:42:44;56655.66;;;-144.48;88.34
68758;BME280;55747;51.998;4.466;2022-11-15T08:45:29;56641.19;;;-144.48;88.26
68758;BME280;55747;51.998;4.466;2022-11-15T08:48:13;56649.44;;;-144.48;88.10
68758;BME280;55747;51.998;4.466;2022-11-15T08:51:15;56616.38;;;-144.48;87.95
68758;BME280;55747;51.998;4.466;2022-11-15T08:53:41;56630.84;;;-144.48;87.56
68758;BME280;55747;51.998;4.466;2022-11-15T08:56:15;56639.13;;;-144.48;87.69
68758;BME280;55747;51.998;4.466;2022-11-15T08:58:46;56666.00;;;-144.48;87.18
68758;BME280;55747;51.998;4.466;2022-11-15T09:07:43;56626.72;;;-144.48;76.15
68758;BME280;55747;51.998;4.466;2022-11-15T09:10:15;56639.13;;;-144.48;77.03
68758;BME280;55747;51.998;4.466;2022-11-15T09:13:00;56630.84;;;-144.48;75.64
68758;BME280;55747;51.998;4.466;2022-11-15T09:15:39;56591.56;;;-144.48;72.53
68758;BME280;55747;51.998;4.466;2022-11-15T09:18:14;56634.97;;;-144.48;73.73
68758;BME280;55747;51.998;4.466;2022-11-15T09:20:50;56612.22;;;-144.48;73.97
68758;BME280;55747;51.998;4.466;2022-11-15T09:23:22;56651.50;;;-144.48;72.69
68758;BME280;55747;51.998;4.466;2022-11-15T09:25:59;56608.09;;;-144.48;71.46
68758;BME280;55747;51.998;4.466;2022-11-15T09:28:26;56628.78;;;-144.48;73.53
68758;BME280;55747;51.998;4.466;2022-11-15T09:30:56;56661.84;;;-144.48;71.71
68758;BME280;55747;51.998;4.466;2022-11-15T09:33:45;56639.13;;;-144.48;72.63
68758;BME280;55747;51.998;4.466;2022-11-15T09:36:14;56645.31;;;-144.48;71.13
68758;BME280;55747;51.998;4.466;2022-11-15T09:38:39;56589.50;;;-144.48;70.82
68758;BME280;55747;51.998;4.466;2022-11-15T09:49:31;56614.31;;;-144.48;72.89
68758;BME280;55747;51.998;4.466;2022-11-15T09:52:00;56620.50;;;-144.48;72.02
68758;BME280;55747;51.998;4.466;2022-11-15T09:54:29;56651.50;;;-144.48;72.77
68758;BME280;55747;51.998;4.466;2022-11-15T09:57:11;56626.72;;;-144.48;70.35
68758;BME280;55747;51.998;4.466;2022-11-15T09:59:59;56628.78;;;-144.48;70.32
68758;BME280;55747;51.998;4.466;2022-11-15T10:05:12;56626.72;;;-144.48;72.74
68758;BME280;55747;51.998;4.466;2022-11-15T10:10:46;56622.56;;;-144.48;72.69
68758;BME280;55747;51.998;4.466;2022-11-15T10:15:47;56608.09;;;-144.48;71.93
68758;BME280;55747;51.998;4.466;2022-11-15T10:18:17;56610.16;;;-144.48;69.64
68758;BME280;55747;51.998;4.466;2022-11-15T10:20:50;56643.25;;;-144.48;69.16
68758;BME280;55747;51.998;4.466;2022-11-15T10:23:27;56630.84;;;-144.48;70.01
68758;BME280;55747;51.998;4.466;2022-11-15T10:25:55;56643.25;;;-144.48;68.72
68758;BME280;55747;51.998;4.466;2022-11-15T10:28:29;56581.22;;;-144.48;65.83
68758;BME280;55747;51.998;4.466;2022-11-15T10:31:01;56599.81;;;-144.48;64.87
68758;BME280;55747;51.998;4.466;2022-11-15T10:36:24;56622.56;;;-144.48;64.05
68758;BME280;55747;51.998;4.466;2022-11-15T10:41:22;56630.84;;;-144.48;63.61
68758;BME280;55747;51.998;4.466;2022-11-15T10:46:50;56614.31;;;-144.48;67.98
68758;BME280;55747;51.998;4.466;2022-11-15T10:49:33;56612.22;;;-144.48;68.97
68758;BME280;55747;51.998;4.466;2022-11-15T10:55:01;56587.41;;;-144.48;71.16
68758;BME280;55747;51.998;4.466;2022-11-15T10:57:32;56620.50;;;-144.48;69.13
68758;BME280;55747;51.998;4.466;2022-11-15T11:00:30;56628.78;;;-144.48;69.06
68758;BME280;55747;51.998;4.466;2022-11-15T11:05:49;56618.44;;;-144.48;71.11
68758;BME280;55747;51.998;4.466;2022-11-15T11:08:39;56610.16;;;-144.48;69.79
68758;BME280;55747;51.998;4.466;2022-11-15T11:21:07;56606.03;;;-144.48;69.49
68758;BME280;55747;51.998;4.466;2022-11-15T11:48:12;56585.34;;;-144.48;69.25
68758;BME280;55747;51.998;4.466;2022-11-15T11:51:28;56610.16;;;-144.48;69.61
68758;BME280;55747;51.998;4.466;2022-11-15T11:54:41;56630.84;;;-144.48;69.59
68758;BME280;55747;51.998;4.466;2022-11-15T12:00:27;56616.38;;;-144.48;68.75
68758;BME280;55747;51.998;4.466;2022-11-15T12:06:45;56597.75;;;-144.48;65.49
68758;BME280;55747;51.998;4.466;2022-11-15T12:19:12;56568.81;;;-144.48;65.12
68758;BME280;55747;51.998;4.466;2022-11-15T12:49:50;56599.81;;;-144.48;65.09
68758;BME280;55747;51.998;4.466;2022-11-15T12:52:52;56608.09;;;-144.48;65.20
68758;BME280;55747;51.998;4.466;2022-11-15T12:59:07;56589.50;;;-144.48;66.71
68758;BME280;55747;51.998;4.466;2022-11-15T13:09:49;56610.16;;;-144.48;66.84
68758;BME280;55747;51.998;4.466;2022-11-15T13:12:01;56641.19;;;-144.48;66.38
68758;BME280;55747;51.998;4.466;2022-11-15T13:18:57;56595.69;;;-144.48;65.81
68758;BME280;55747;51.998;4.466;2022-11-15T13:22:13;56587.41;;;-144.48;65.52
68758;BME280;55747;51.998;4.466;2022-11-15T13:41:44;56618.44;;;-144.48;64.96
68758;BME280;55747;51.998;4.466;2022-11-15T13:48:29;56630.84;;;-144.48;64.96
68758;BME280;55747;51.998;4.466;2022-11-15T13:51:23;56599.81;;;-144.48;65.62
68758;BME280;55747;51.998;4.466;2022-11-15T13:54:14;56630.84;;;-144.48;65.27
68758;BME280;55747;51.998;4.466;2022-11-15T14:03:58;56612.22;;;-144.48;65.37
68758;BME280;55747;51.998;4.466;2022-11-15T14:09:36;56581.22;;;-144.48;65.97
68758;BME280;55747;51.998;4.466;2022-11-15T14:12:55;56634.97;;;-144.48;66.35
68758;BME280;55747;51.998;4.466;2022-11-15T14:15:43;56608.09;;;-144.48;66.08
68758;BME280;55747;51.998;4.466;2022-11-15T14:18:42;56614.31;;;-144.48;66.04
68758;BME280;55747;51.998;4.466;2022-11-15T14:21:21;56626.72;;;-144.48;66.45
68758;BME280;55747;51.998;4.466;2022-11-15T14:24:20;56616.38;;;-144.48;66.10
68758;BME280;55747;51.998;4.466;2022-11-15T14:26:51;56597.75;;;-144.48;66.37
68758;BME280;55747;51.998;4.466;2022-11-15T14:29:55;56606.03;;;-144.48;66.21
68758;BME280;55747;51.998;4.466;2022-11-15T14:46:21;56597.75;;;-144.48;66.44
68758;BME280;55747;51.998;4.466;2022-11-15T14:55:35;56606.03;;;-144.48;66.87
68758;BME280;55747;51.998;4.466;2022-11-15T14:58:10;56606.03;;;-144.48;67.22
68758;BME280;55747;51.998;4.466;2022-11-15T15:00:37;56620.50;;;-144.48;67.06
68758;BME280;55747;51.998;4.466;2022-11-15T15:03:04;56593.63;;;-144.48;67.10
68758;BME280;55747;51.998;4.466;2022-11-15T15:05:47;56583.28;;;-144.48;67.26
68758;BME280;55747;51.998;4.466;2022-11-15T15:08:30;56599.81;;;-144.48;67.66
68758;BME280;55747;51.998;4.466;2022-11-15T15:10:55;56616.38;;;-144.48;67.48
68758;BME280;55747;51.998;4.466;2022-11-15T15:13:36;56589.50;;;-144.48;67.70
68758;BME280;55747;51.998;4.466;2022-11-15T15:16:14;56593.63;;;-144.48;67.61
68758;BME280;55747;51.998;4.466;2022-11-15T15:18:52;56593.63;;;-144.48;67.81
68758;BME280;55747;51.998;4.466;2022-11-15T15:21:51;56601.91;;;-144.48;67.87
68758;BME280;55747;51.998;4.466;2022-11-15T15:24:34;56618.44;;;-144.48;68.06
68758;BME280;55747;51.998;4.466;2022-11-15T15:27:50;56589.50;;;-144.48;68.12
68758;BME280;55747;51.998;4.466;2022-11-15T15:33:19;56612.22;;;-144.48;69.05
68758;BME280;55747;51.998;4.466;2022-11-15T15:35:44;56597.75;;;-144.48;70.55
68758;BME280;55747;51.998;4.466;2022-11-15T15:38:13;56608.09;;;-144.48;72.01
68758;BME280;55747;51.998;4.466;2022-11-15T15:40:40;56595.69;;;-144.48;73.15
68758;BME280;55747;51.998;4.466;2022-11-15T15:43:11;56597.75;;;-144.48;74.03
68758;BME280;55747;51.998;4.466;2022-11-15T15:45:39;56593.63;;;-144.48;74.61
68758;BME280;55747;51.998;4.466;2022-11-15T15:48:05;56587.41;;;-144.48;75.88
68758;BME280;55747;51.998;4.466;2022-11-15T15:50:34;56628.78;;;-144.48;76.54
68758;BME280;55747;51.998;4.466;2022-11-15T15:53:01;56610.16;;;-144.48;77.20
68758;BME280;55747;51.998;4.466;2022-11-15T15:55:29;56616.38;;;-144.48;78.50
68758;BME280;55747;51.998;4.466;2022-11-15T15:57:55;56622.56;;;-144.48;79.69
68758;BME280;55747;51.998;4.466;2022-11-15T16:00:22;56612.22;;;-144.48;80.12
68758;BME280;55747;51.998;4.466;2022-11-15T16:02:48;56603.97;;;-144.48;80.96
68758;BME280;55747;51.998;4.466;2022-11-15T16:05:14;56622.56;;;-144.48;81.43
68758;BME280;55747;51.998;4.466;2022-11-15T16:07:40;56626.72;;;-144.48;81.79
68758;BME280;55747;51.998;4.466;2022-11-15T16:10:24;56599.81;;;-144.48;82.30
68758;BME280;55747;51.998;4.466;2022-11-15T16:12:53;56612.22;;;-144.48;82.52
68758;BME280;55747;51.998;4.466;2022-11-15T16:15:22;56624.63;;;-144.48;82.97
68758;BME280;55747;51.998;4.466;2022-11-15T16:17:52;56591.56;;;-144.48;83.92
68758;BME280;55747;51.998;4.466;2022-11-15T16:20:43;56599.81;;;-144.48;84.73
68758;BME280;55747;51.998;4.466;2022-11-15T16:23:13;56595.69;;;-144.48;85.31
68758;BME280;55747;51.998;4.466;2022-11-15T16:25:41;56603.97;;;-144.48;86.54
68758;BME280;55747;51.998;4.466;2022-11-15T16:28:19;56647.38;;;-144.48;87.02
68758;BME280;55747;51.998;4.466;2022-11-15T16:30:45;56608.09;;;-144.48;87.93
68758;BME280;55747;51.998;4.466;2022-11-15T16:33:11;56637.03;;;-144.48;88.21
68758;BME280;55747;51.998;4.466;2022-11-15T16:35:36;56608.09;;;-144.48;88.68
68758;BME280;55747;51.998;4.466;2022-11-15T16:38:01;56610.16;;;-144.48;89.07
68758;BME280;55747;51.998;4.466;2022-11-15T16:40:29;56618.44;;;-144.48;89.50
68758;BME280;55747;51.998;4.466;2022-11-15T16:42:56;56657.72;;;-144.48;89.98
68758;BME280;55747;51.998;4.466;2022-11-15T16:45:22;56612.22;;;-144.48;90.78
68758;BME280;55747;51.998;4.466;2022-11-15T16:47:47;56624.63;;;-144.48;91.25
68758;BME280;55747;51.998;4.466;2022-11-15T16:50:25;56628.78;;;-144.48;91.43
68758;BME280;55747;51.998;4.466;2022-11-15T16:52:52;56630.84;;;-144.48;91.77
68758;BME280;55747;51.998;4.466;2022-11-15T16:55:19;56616.38;;;-144.48;92.38
68758;BME280;55747;51.998;4.466;2022-11-15T16:57:44;56634.97;;;-144.48;92.58
68758;BME280;55747;51.998;4.466;2022-11-15T17:00:14;56610.16;;;-144.48;92.79
68758;BME280;55747;51.998;4.466;2022-11-15T17:02:44;56620.50;;;-144.48;93.20
68758;BME280;55747;51.998;4.466;2022-11-15T17:05:11;56639.13;;;-144.48;93.43